Yoe, Pennsylvania
Current Conditions -  °F | °C
As of 9:53 AM on Saturday 20 Dec 2014 (Local Time) from KTHV Reporting Station
Clear Clear  
Wind Chill: 24°   Ceiling: Unl
Heat Index: 31°   Visibility: 10mi
Dew Point: 21°   Wind: 7mph
Humidity: 67%   Direction: 360°N
Pressure: 30.29"   Gusts: NA
Location:  39.895°N, 76.6501°W
Report Text: KTHV 201453Z AUTO 36006KT 10SM CLR M01/M06 A3029 RMK AO2 SLP265 T10061061 50006
Loading
Personal Weather Stations






























Interactive Weather Map New forecast layout! Learn more

10-Day Weather Forecast

Advertisements
Track Severe Weather on mobile